Time;durP1;ratioP1;P1;durP2;ratioP2;P2;SDS_P1;SDS_P2;PMS_P1;PMS_P2;Temp;Humidity;BMP_temperature;BMP_pressure;BME280_temperature;BME280_humidity;BME280_pressure;Samples;Min_cycle;Max_cycle;Signal;HPM_P1;HPM_P2
2023/01/05 00:00:24;;;;;;;;;;;128.60;2252.80;;;;;;5035457;28;20139;-77
2023/01/05 00:02:50;;;;;;;64.50;26.98;;;128.50;2252.80;;;;;;5052553;28;20336;-79
2023/01/05 00:05:15;;;;;;;;;;;128.70;2252.80;;;;;;5031704;28;20066;-79
2023/01/05 00:07:42;;;;;;;69.25;26.73;;;128.70;2252.80;;;;;;5034947;28;20363;-77
2023/01/05 00:22:29;;;;;;;67.50;27.55;;;128.70;2252.80;;;;;;5052615;28;20170;-78
2023/01/05 00:23:58;;;;;;;87.43;29.10;;;128.70;2252.80;;;;;;5055681;28;20489;-79
2023/01/05 00:26:24;;;;;;;;;;;128.70;2252.80;;;;;;5039298;28;20045;-78
2023/01/05 00:28:49;;;;;;;65.78;25.83;;;128.70;2252.80;;;;;;5056433;28;19915;-80
2023/01/05 00:31:15;;;;;;;;;;;128.70;2252.80;;;;;;5038825;28;20510;-79
2023/01/05 00:33:41;;;;;;;92.20;27.58;;;128.80;2252.80;;;;;;5056478;28;19944;-79
2023/01/05 00:36:09;;;;;;;;;;;128.90;2252.80;;;;;;5039545;28;20032;-79
2023/01/05 00:38:35;;;;;;;70.97;26.40;;;128.90;2252.80;;;;;;5038357;28;20004;-79
2023/01/05 00:41:01;;;;;;;;;;;128.90;2252.80;;;;;;5037296;28;20060;-79
2023/01/05 00:43:26;;;;;;;130.43;29.45;;;128.90;2252.80;;;;;;5038319;28;19909;-79
2023/01/05 00:45:52;;;;;;;;;;;128.90;2252.80;;;;;;5056583;28;20104;-77
2023/01/05 00:48:17;;;;;;;77.97;28.52;;;153.60;2252.80;;;;;;5055776;28;19931;-79
2023/01/05 00:50:44;;;;;;;;;;;153.60;2252.80;;;;;;5038257;28;20136;-79
2023/01/05 00:53:10;;;;;;;54.75;21.20;;;153.60;2252.80;;;;;;5038017;28;19904;-79
2023/01/05 00:55:36;;;;;;;;;;;128.90;2252.80;;;;;;5038777;28;20372;-79
2023/01/05 00:58:01;;;;;;;87.72;29.33;;;128.90;2252.80;;;;;;5038248;28;19943;-79
2023/01/05 01:00:27;;;;;;;;;;;128.90;2252.80;;;;;;5033771;28;20025;-77
2023/01/05 01:02:53;;;;;;;77.03;25.33;;;153.60;2252.80;;;;;;5055775;28;19916;-78
2023/01/05 01:05:18;;;;;;;;;;;128.90;2252.80;;;;;;5056337;28;20028;-79
2023/01/05 01:07:44;;;;;;;92.50;25.98;;;128.90;2252.80;;;;;;5037971;28;19912;-79
2023/01/05 01:10:10;;;;;;;;;;;128.80;2252.80;;;;;;5056104;28;20029;-78
2023/01/05 01:12:36;;;;;;;60.17;22.92;;;128.80;2124.80;;;;;;5037825;28;19941;-79
2023/01/05 01:15:02;;;;;;;;;;;128.70;2252.80;;;;;;5038270;28;20025;-79
2023/01/05 01:17:29;;;;;;;63.10;20.57;;;128.80;2252.80;;;;;;5037503;28;19948;-79
2023/01/05 01:19:55;;;;;;;66.57;22.67;;;128.90;2252.80;;;;;;5038304;28;20071;-78
2023/01/05 01:22:20;;;;;;;;;;;128.80;2252.80;;;;;;5055818;28;20045;-79
2023/01/05 01:24:46;;;;;;;64.70;23.15;;;128.90;2252.80;;;;;;5037553;28;19915;-79
2023/01/05 01:27:12;;;;;;;;;;;128.90;2252.80;;;;;;5037754;28;20047;-78
2023/01/05 01:29:37;;;;;;;72.45;23.10;;;153.60;2099.20;;;;;;5036995;28;20362;-79
2023/01/05 01:32:03;;;;;;;;;;;153.70;2252.80;;;;;;5040281;28;20040;-79
2023/01/05 01:34:29;;;;;;;70.10;24.08;;;153.80;2252.80;;;;;;5037508;28;20335;-78
2023/01/05 01:36:55;;;;;;;;;;;153.90;2252.80;;;;;;5055647;28;20025;-79
2023/01/05 01:39:21;;;;;;;70.72;25.42;;;153.80;2252.80;;;;;;5037365;28;20314;-80
2023/01/05 01:41:46;;;;;;;;;;;153.70;2252.80;;;;;;5034788;28;20028;-78
2023/01/05 01:44:46;;;;;;;72.85;22.00;;;153.60;2252.80;;;;;;5037299;28;19904;-77
2023/01/05 01:47:20;;;;;;;56.78;22.13;;;153.70;2252.80;;;;;;5035829;28;20060;-78
2023/01/05 01:49:47;;;;;;;86.88;24.25;;;153.70;2252.80;;;;;;5054867;28;20033;-79
2023/01/05 01:52:13;;;;;;;75.45;24.98;;;153.60;2252.80;;;;;;5036979;28;20037;-79
2023/01/05 01:54:39;;;;;;;63.20;22.98;;;153.60;2252.80;;;;;;5037311;28;20036;-80
2023/01/05 01:57:05;;;;;;;;;;;153.60;2252.80;;;;;;5055153;28;20061;-78
2023/01/05 01:59:31;;;;;;;59.35;22.98;;;153.60;2252.80;;;;;;5037207;28;20379;-78
2023/01/05 02:01:58;;;;;;;;;;;153.60;2252.80;;;;;;5037278;28;20028;-79
2023/01/05 02:04:26;;;;;;;87.70;27.85;;;153.60;2252.80;;;;;;5036509;28;20143;-79
2023/01/05 02:06:52;;;;;;;85.47;29.10;;;153.70;2252.80;;;;;;5036735;28;20497;-79
2023/01/05 02:09:18;;;;;;;78.50;26.15;;;153.80;2252.80;;;;;;5037284;28;20385;-80
2023/01/05 02:12:00;;;;;;;81.45;27.13;;;153.80;2252.80;;;;;;5037027;28;20041;-79
2023/01/05 02:14:59;;;;;;;74.10;25.45;;;153.80;2252.80;;;;;;5030329;28;20497;-79
2023/01/05 02:17:57;;;;;;;66.82;23.73;;;153.80;2252.80;;;;;;5053065;28;20029;-78
2023/01/05 02:20:26;;;;;;;65.78;22.80;;;153.70;2252.80;;;;;;5034529;28;20040;-79
2023/01/05 02:23:34;;;;;;;79.15;26.10;;;153.70;2252.80;;;;;;5036926;28;20120;-79
2023/01/05 02:26:00;;;;;;;;;;;153.60;2252.80;;;;;;5035197;28;20029;-80
2023/01/05 02:28:47;;;;;;;49.35;18.42;;;153.80;2252.80;;;;;;5054732;28;19904;-79
2023/01/05 02:31:16;;;;;;;;;;;153.90;2252.80;;;;;;5036590;28;20033;-79
2023/01/05 02:33:53;;;;;;;65.10;24.17;;;153.80;2252.80;;;;;;5054647;28;20290;-79
2023/01/05 02:36:42;;;;;;;68.13;25.52;;;153.70;2252.80;;;;;;5034513;28;20025;-80
2023/01/05 02:39:18;;;;;;;78.93;25.98;;;153.70;2252.80;;;;;;5035400;28;20082;-79
2023/01/05 02:41:56;;;;;;;86.10;26.35;;;153.70;2252.80;;;;;;5027818;28;20024;-79
2023/01/05 02:44:22;;;;;;;100.10;27.25;;;153.60;2252.80;;;;;;5051919;28;20032;-79
2023/01/05 02:47:02;;;;;;;;;;;153.70;2252.80;;;;;;5048479;28;20029;-79
2023/01/05 02:49:30;;;;;;;67.88;22.95;;;153.60;2252.80;;;;;;5030873;28;19996;-79
2023/01/05 02:51:59;;;;;;;72.13;24.98;;;128.90;2252.80;;;;;;5034221;28;20034;-78
2023/01/05 02:54:32;;;;;;;67.97;24.75;;;128.80;2252.80;;;;;;5033968;28;20052;-79
2023/01/05 02:57:18;;;;;;;63.35;22.52;;;128.90;2252.80;;;;;;5011658;28;20041;-79
2023/01/05 02:59:49;;;;;;;69.63;24.75;;;128.80;2252.80;;;;;;5005094;28;20053;-78
2023/01/05 03:02:26;;;;;;;66.22;23.02;;;128.80;2252.80;;;;;;5016366;28;20095;-79
2023/01/05 03:05:03;;;;;;;47.72;18.52;;;128.70;2252.80;;;;;;5034319;28;20021;-80
2023/01/05 03:07:33;;;;;;;62.28;22.88;;;128.70;2252.80;;;;;;5032825;28;20032;-79
2023/01/05 03:13:39;;;;;;;63.30;21.55;;;128.80;2252.80;;;;;;5027711;28;20021;-79
2023/01/05 03:15:35;;;;;;;53.65;21.08;;;153.60;2252.80;;;;;;5033552;28;20032;-79
2023/01/05 03:18:08;;;;;;;61.20;21.95;;;128.90;2252.80;;;;;;5025007;28;20061;-80
2023/01/05 03:20:36;;;;;;;58.20;22.67;;;153.60;2227.20;;;;;;5016670;28;20034;-80
2023/01/05 03:38:11;;;;;;;67.90;23.80;;;153.80;2252.80;;;;;;4934198;29;20067;-79
2023/01/05 03:40:38;;;;;;;77.28;27.05;;;153.70;2252.80;;;;;;4934247;29;20434;-77
2023/01/05 03:43:05;;;;;;;98.30;31.70;;;153.70;2252.80;;;;;;4934174;29;20067;-80
2023/01/05 03:45:43;;;;;;;82.78;31.02;;;153.80;2252.80;;;;;;4918173;29;20053;-79
2023/01/05 03:48:09;;;;;;;65.57;24.23;;;153.80;2252.80;;;;;;4934326;29;20050;-80
2023/01/05 03:50:35;;;;;;;;;;;153.80;2252.80;;;;;;4918533;29;20509;-79
2023/01/05 03:53:02;;;;;;;64.75;24.23;;;153.70;2252.80;;;;;;4937338;29;19911;-76
2023/01/05 03:55:28;;;;;;;97.90;24.88;;;153.70;2252.80;;;;;;4924605;29;20070;-76
2023/01/05 03:57:53;;;;;;;;;;;153.70;2252.80;;;;;;4924942;29;20152;-80
2023/01/05 04:00:20;;;;;;;67.68;23.90;;;153.60;2252.80;;;;;;4939845;29;19907;-79
2023/01/05 04:02:46;;;;;;;88.30;25.40;;;153.60;2252.80;;;;;;4940538;29;20024;-77
2023/01/05 04:05:11;;;;;;;;;;;153.60;2252.80;;;;;;4941181;29;20382;-80
2023/01/05 04:07:37;;;;;;;67.50;23.35;;;128.90;2252.80;;;;;;4924690;29;20384;-79
2023/01/05 04:10:03;;;;;;;;;;;153.60;2252.80;;;;;;4940815;29;20039;-80
2023/01/05 04:12:29;;;;;;;77.30;24.80;;;128.90;2252.80;;;;;;4924450;29;19941;-79
2023/01/05 04:14:54;;;;;;;;;;;153.60;2252.80;;;;;;5004461;28;20442;-77
2023/01/05 04:17:20;;;;;;;64.93;24.80;;;153.60;2252.80;;;;;;5021913;28;19964;-79
2023/01/05 04:19:46;;;;;;;51.03;22.92;;;153.60;2252.80;;;;;;5022047;28;20079;-79
2023/01/05 04:22:12;;;;;;;;;;;153.60;2252.80;;;;;;5040220;28;20025;-80
2023/01/05 04:24:37;;;;;;;82.95;22.38;;;153.70;2252.80;;;;;;5022400;28;19936;-80
2023/01/05 04:27:03;;;;;;;;;;;153.70;2252.80;;;;;;5022367;28;20022;-80
2023/01/05 04:29:29;;;;;;;65.05;23.70;;;153.60;2252.80;;;;;;5022122;28;19999;-79
2023/01/05 04:31:54;;;;;;;;;;;153.70;2252.80;;;;;;5039794;28;20073;-78
2023/01/05 04:34:20;;;;;;;59.50;23.42;;;153.80;1920.00;;;;;;5039697;28;19927;-76
2023/01/05 04:36:48;;;;;;;;;;;153.80;2252.80;;;;;;5022257;28;20471;-78
2023/01/05 04:39:14;;;;;;;81.78;26.00;;;153.70;2252.80;;;;;;5022113;28;20339;-80
2023/01/05 04:41:40;;;;;;;80.47;24.50;;;154.00;2252.80;;;;;;5022146;28;20073;-79
2023/01/05 04:44:05;;;;;;;;;;;153.90;2252.80;;;;;;5022366;28;20053;-77
2023/01/05 04:46:31;;;;;;;83.10;25.05;;;153.80;2252.80;;;;;;5021494;28;20041;-78
2023/01/05 04:48:57;;;;;;;;;;;153.80;2252.80;;;;;;5022354;28;20430;-78
2023/01/05 04:51:23;;;;;;;90.38;28.38;;;153.90;2252.80;;;;;;5021908;28;20371;-76
2023/01/05 04:53:48;;;;;;;;;;;154.00;2252.80;;;;;;5021951;28;20029;-80
2023/01/05 04:56:14;;;;;;;89.43;28.20;;;153.90;2252.80;;;;;;5021566;28;20004;-80
2023/01/05 04:58:40;;;;;;;85.93;26.80;;;153.80;2252.80;;;;;;5021102;28;20041;-80
2023/01/05 05:01:06;;;;;;;;;;;153.70;2252.80;;;;;;5039685;28;20025;-79
2023/01/05 05:03:31;;;;;;;84.20;26.10;;;153.80;2252.80;;;;;;5021697;28;20311;-80
2023/01/05 05:05:57;;;;;;;;;;;153.90;2252.80;;;;;;5036055;28;20033;-77
2023/01/05 05:08:22;;;;;;;85.68;27.02;;;153.90;2252.80;;;;;;5036322;28;20326;-79
2023/01/05 05:10:48;;;;;;;;;;;153.90;2252.80;;;;;;5036631;28;20033;-79
2023/01/05 05:13:14;;;;;;;81.00;24.95;;;154.10;2252.80;;;;;;5018482;28;20401;-77
2023/01/05 05:15:40;;;;;;;;;;;154.00;2252.80;;;;;;5018969;28;20048;-77
2023/01/05 05:18:05;;;;;;;75.25;21.98;;;154.00;2252.80;;;;;;5036159;28;20282;-77
2023/01/05 05:20:31;;;;;;;;;;;153.80;2252.80;;;;;;5036484;28;20033;-80
2023/01/05 05:22:57;;;;;;;77.45;22.40;;;153.70;2252.80;;;;;;5018418;28;19905;-77
2023/01/05 05:25:22;;;;;;;;;;;153.60;2252.80;;;;;;5036366;28;20029;-80
2023/01/05 05:27:48;;;;;;;81.68;21.80;;;153.70;2252.80;;;;;;5017850;28;19905;-80
2023/01/05 05:30:14;;;;;;;;;;;153.60;2252.80;;;;;;5018671;28;20116;-79
2023/01/05 05:32:39;;;;;;;74.70;23.38;;;153.80;2252.80;;;;;;5036379;28;19905;-78
2023/01/05 05:35:05;;;;;;;;;;;154.00;2252.80;;;;;;5018463;28;20048;-79
2023/01/05 05:37:31;;;;;;;68.05;21.33;;;154.00;2252.80;;;;;;5018055;28;19912;-80
2023/01/05 05:39:56;;;;;;;;;;;153.80;2252.80;;;;;;5035971;28;20018;-79
2023/01/05 05:42:22;;;;;;;71.82;24.30;;;153.70;2252.80;;;;;;5035674;28;20011;-77
2023/01/05 05:44:48;;;;;;;;;;;153.80;2252.80;;;;;;5018345;28;20029;-80
2023/01/05 05:47:13;;;;;;;67.47;24.63;;;153.80;2252.80;;;;;;5017858;28;19908;-80
2023/01/05 05:49:39;;;;;;;;;;;153.80;2252.80;;;;;;5018131;28;20491;-79
2023/01/05 05:52:04;;;;;;;86.65;24.65;;;153.80;2252.80;;;;;;5035281;28;19916;-79
2023/01/05 05:54:30;;;;;;;;;;;153.70;2252.80;;;;;;5035869;28;20018;-79
2023/01/05 05:56:56;;;;;;;75.40;25.45;;;153.60;2252.80;;;;;;5017699;28;19917;-79
2023/01/05 05:59:21;;;;;;;;;;;153.60;2252.80;;;;;;5018171;28;20033;-77
2023/01/05 06:01:47;;;;;;;57.00;21.95;;;153.70;2252.80;;;;;;5017705;28;20309;-79
2023/01/05 06:04:13;;;;;;;;;;;153.70;2252.80;;;;;;5035747;28;20059;-78
2023/01/05 06:06:39;;;;;;;68.43;25.45;;;153.70;2252.80;;;;;;5017780;28;19909;-79
2023/01/05 06:09:05;;;;;;;61.42;25.27;;;153.60;2252.80;;;;;;5016823;28;20057;-77
2023/01/05 06:11:30;;;;;;;;;;;153.80;2252.80;;;;;;5017799;28;20049;-79
2023/01/05 06:13:56;;;;;;;70.68;26.02;;;153.80;2252.80;;;;;;5017289;28;19905;-80
2023/01/05 06:16:22;;;;;;;;;;;153.80;2252.80;;;;;;5016767;28;20117;-79
2023/01/05 06:18:47;;;;;;;69.65;26.60;;;153.70;2252.80;;;;;;5017140;28;19963;-79
2023/01/05 06:21:13;;;;;;;;;;;153.70;2252.80;;;;;;5017697;28;20071;-79
2023/01/05 06:23:39;;;;;;;48.28;20.75;;;153.60;2252.80;;;;;;5017467;28;19991;-77
2023/01/05 06:26:06;;;;;;;78.65;25.55;;;128.90;2252.80;;;;;;5034797;28;20052;-79
2023/01/05 06:28:31;;;;;;;56.38;21.75;;;128.90;2252.80;;;;;;5035056;28;20026;-81
2023/01/05 06:30:57;;;;;;;;;;;128.90;2252.80;;;;;;5035197;28;20087;-81
2023/01/05 06:33:23;;;;;;;60.67;24.75;;;128.90;2252.80;;;;;;5034769;28;20359;-81
2023/01/05 06:35:48;;;;;;;;;;;128.90;2252.80;;;;;;5017569;28;20056;-75
2023/01/05 06:38:15;;;;;;;59.63;24.17;;;128.90;2252.80;;;;;;5016769;28;20404;-76
2023/01/05 06:40:43;;;;;;;56.95;21.58;;;128.80;2252.80;;;;;;5016327;28;20021;-76
2023/01/05 06:43:10;;;;;;;60.97;23.77;;;128.80;2252.80;;;;;;5016232;28;20021;-78
2023/01/05 06:45:36;;;;;;;50.55;23.73;;;128.80;2252.80;;;;;;5034300;28;20438;-77
2023/01/05 06:48:01;;;;;;;;;;;128.90;2252.80;;;;;;5016847;28;20037;-76
2023/01/05 06:50:29;;;;;;;51.85;21.95;;;153.60;2252.80;;;;;;5034167;28;19921;-77
2023/01/05 06:52:55;;;;;;;53.30;23.08;;;153.60;2252.80;;;;;;5014420;28;20113;-79
2023/01/05 06:55:23;;;;;;;;;;;153.60;2252.80;;;;;;5011760;28;20124;-80
2023/01/05 06:57:49;;;;;;;58.50;22.60;;;128.90;2252.80;;;;;;5022949;28;19912;-79
2023/01/05 07:00:15;;;;;;;;;;;128.90;2252.80;;;;;;5021784;28;20387;-76
2023/01/05 07:02:41;;;;;;;51.38;22.23;;;153.60;2252.80;;;;;;5024297;28;19917;-80
2023/01/05 07:05:07;;;;;;;;;;;153.70;2252.80;;;;;;5035537;28;20109;-78
2023/01/05 07:07:33;;;;;;;54.28;23.25;;;153.70;2252.80;;;;;;5018227;28;19905;-77
2023/01/05 07:09:59;;;;;;;;;;;153.80;2252.80;;;;;;5035736;28;20025;-78
2023/01/05 07:12:24;;;;;;;46.80;21.42;;;153.80;2252.80;;;;;;5033160;28;19917;-76
2023/01/05 07:14:50;;;;;;;;;;;153.80;2252.80;;;;;;5034822;28;20025;-77
2023/01/05 07:17:16;;;;;;;52.40;24.27;;;153.80;2252.80;;;;;;5034626;28;20376;-75
2023/01/05 07:19:41;;;;;;;;;;;153.80;2252.80;;;;;;5016936;28;20156;-77
2023/01/05 07:22:07;;;;;;;46.92;23.90;;;154.00;2252.80;;;;;;5033379;28;19909;-77
2023/01/05 07:24:32;;;;;;;;;;;154.10;2252.80;;;;;;5008052;28;20495;-78
2023/01/05 07:26:59;;;;;;;51.80;24.67;;;154.10;2252.80;;;;;;5013487;28;20391;-77
2023/01/05 07:29:25;;;;;;;48.55;25.48;;;154.10;2252.80;;;;;;5038180;28;20021;-77
2023/01/05 07:31:53;;;;;;;;;;;154.10;2252.80;;;;;;5041981;28;20116;-77
2023/01/05 07:34:20;;;;;;;49.22;25.05;;;154.10;2252.80;;;;;;5045601;28;19993;-77
2023/01/05 07:36:46;;;;;;;60.70;28.00;;;154.00;2252.80;;;;;;5038411;28;20501;-80
2023/01/05 07:39:12;;;;;;;52.38;28.35;;;154.10;2252.80;;;;;;5034478;28;20021;-79
2023/01/05 07:41:38;;;;;;;61.25;29.50;;;153.90;2252.80;;;;;;5035980;28;20112;-78
2023/01/05 07:44:04;;;;;;;;;;;154.10;2252.80;;;;;;5034667;28;20104;-77
2023/01/05 07:46:30;;;;;;;58.70;29.15;;;154.10;2252.80;;;;;;5020440;28;19909;-79
2023/01/05 07:48:57;;;;;;;63.78;31.42;;;154.30;2252.80;;;;;;5020817;28;20071;-79
2023/01/05 07:51:22;;;;;;;69.60;32.20;;;154.30;2252.80;;;;;;5034678;28;20427;-79
2023/01/05 07:53:48;;;;;;;;;;;154.50;2252.80;;;;;;5018736;28;20038;-81
2023/01/05 07:56:14;;;;;;;65.25;31.17;;;154.50;2252.80;;;;;;5024292;28;20433;-79
2023/01/05 07:58:40;;;;;;;;;;;154.50;2048.00;;;;;;5027350;28;20025;-80
2023/01/05 08:01:11;;;;;;;50.70;27.40;;;179.30;2227.20;;;;;;5020139;28;20291;-78
2023/01/05 08:03:37;;;;;;;45.38;24.48;;;179.50;1996.80;;;;;;5035980;28;20080;-80
2023/01/05 08:06:10;;;;;;;;;;;179.50;2252.80;;;;;;5025095;28;20486;-78
2023/01/05 08:08:35;;;;;;;54.00;26.20;;;179.50;2252.80;;;;;;5025743;28;19909;-81
2023/01/05 08:11:04;;;;;;;;;;;179.60;2252.80;;;;;;5036411;28;20037;-81
2023/01/05 08:16:14;;;;;;;52.80;26.75;;;179.70;2252.80;;;;;;5039521;28;20044;-79
2023/01/05 08:18:40;;;;;;;;;;;179.70;2252.80;;;;;;5020789;28;20033;-82
2023/01/05 08:21:07;;;;;;;60.63;28.92;;;179.70;2252.80;;;;;;5020425;28;19991;-81
2023/01/05 08:23:33;;;;;;;56.25;30.83;;;179.80;2252.80;;;;;;5017923;28;20499;-80
2023/01/05 08:26:17;;;;;;;46.25;26.67;;;179.80;2252.80;;;;;;5018705;28;20040;-79
2023/01/05 08:28:43;;;;;;;44.13;25.40;;;179.80;2252.80;;;;;;5017294;28;20593;-83
2023/01/05 08:31:21;;;;;;;55.88;27.95;;;180.00;2252.80;;;;;;5016896;28;20038;-85
2023/01/05 08:33:47;;;;;;;53.22;28.73;;;180.10;2252.80;;;;;;5023344;28;20052;-85
2023/01/05 08:36:14;;;;;;;;;;;180.10;2252.80;;;;;;5021640;28;20049;-80
2023/01/05 08:38:46;;;;;;;;;;;180.10;2252.80;;;;;;5010865;28;19912;-90
2023/01/05 08:41:18;;;;;;;48.58;24.77;;;204.80;1996.80;;;;;;5025784;28;20004;-84
2023/01/05 08:43:47;;;;;;;51.85;27.40;;;204.80;2252.80;;;;;;5027305;28;20040;-82
2023/01/05 08:46:13;;;;;;;52.60;27.35;;;180.10;2252.80;;;;;;5016417;28;20075;-83
2023/01/05 08:48:38;;;;;;;;;;;204.80;2252.80;;;;;;5039350;28;20104;-86
2023/01/05 08:51:06;;;;;;;43.97;22.77;;;204.90;2252.80;;;;;;5021297;28;19917;-85
2023/01/05 08:53:33;;;;;;;50.08;25.98;;;204.90;2073.60;;;;;;5038790;28;20022;-89
2023/01/05 08:56:00;;;;;;;42.55;24.67;;;205.00;2252.80;;;;;;5014434;28;20535;-80
2023/01/05 08:58:25;;;;;;;58.30;29.98;;;205.00;2252.80;;;;;;5027957;28;20116;-85
2023/01/05 09:00:52;;;;;;;;;;;205.20;2252.80;;;;;;5019441;28;20108;-87
2023/01/05 09:03:18;;;;;;;42.38;24.33;;;205.40;2252.80;;;;;;5005408;28;20351;-88
2023/01/05 09:05:44;;;;;;;50.13;27.40;;;205.40;2252.80;;;;;;5001635;28;20100;-87
2023/01/05 09:08:10;;;;;;;;;;;205.50;2252.80;;;;;;5001389;28;20480;-83
2023/01/05 09:10:35;;;;;;;47.38;24.55;;;205.50;2252.80;;;;;;4998893;28;20032;-78
2023/01/05 09:13:01;;;;;;;;;;;205.50;2252.80;;;;;;5004727;28;20045;-79
2023/01/05 09:15:26;;;;;;;50.25;26.17;;;205.50;2252.80;;;;;;4999132;28;19916;-80
2023/01/05 09:17:52;;;;;;;;;;;205.50;2252.80;;;;;;5021511;28;20037;-81
2023/01/05 09:20:18;;;;;;;48.67;24.67;;;205.60;2252.80;;;;;;5014502;28;19952;-81
2023/01/05 09:22:43;;;;;;;;;;;205.50;2252.80;;;;;;5016542;28;20029;-85
2023/01/05 09:25:10;;;;;;;49.85;25.60;;;205.60;2252.80;;;;;;5016418;28;19912;-78
2023/01/05 09:27:36;;;;;;;51.00;26.83;;;205.60;2252.80;;;;;;4999769;28;20072;-78
2023/01/05 09:30:04;;;;;;;60.22;32.75;;;205.70;2252.80;;;;;;4998452;28;20041;-76
2023/01/05 09:32:29;;;;;;;45.35;27.77;;;230.60;2252.80;;;;;;5015533;28;20041;-80
2023/01/05 09:34:55;;;;;;;54.50;29.92;;;230.70;2252.80;;;;;;5002413;28;20034;-79
2023/01/05 09:37:21;;;;;;;49.35;26.80;;;230.80;2252.80;;;;;;5020195;28;20042;-79
2023/01/05 09:39:46;;;;;;;;;;;230.80;2252.80;;;;;;5002034;28;20041;-81
2023/01/05 09:42:17;;;;;;;38.92;24.38;;;230.90;2252.80;;;;;;4997619;28;19910;-81
2023/01/05 09:44:50;;;;;;;52.33;28.10;;;230.90;2252.80;;;;;;5018587;28;20025;-81
2023/01/05 09:47:38;;;;;;;45.90;26.83;;;231.10;2252.80;;;;;;5025606;28;20029;-80
2023/01/05 09:50:06;;;;;;;40.28;21.48;;;231.10;2252.80;;;;;;5013387;28;20053;-80
2023/01/05 09:52:34;;;;;;;38.10;23.00;;;231.10;2252.80;;;;;;4999228;28;20041;-80
2023/01/05 09:55:01;;;;;;;40.20;23.08;;;231.10;2252.80;;;;;;5007176;28;20025;-85
2023/01/05 09:57:28;;;;;;;41.13;25.80;;;231.30;2252.80;;;;;;5003310;28;20050;-80
2023/01/05 10:00:02;;;;;;;35.80;22.27;;;256.00;2252.80;;;;;;4998131;28;20029;-83
2023/01/05 10:02:43;;;;;;;44.55;27.13;;;256.30;2252.80;;;;;;4999981;28;20030;-86
2023/01/05 10:05:12;;;;;;;35.80;22.38;;;256.60;2252.80;;;;;;4998497;28;20049;-87
2023/01/05 10:07:46;;;;;;;36.20;21.70;;;256.90;2252.80;;;;;;4998033;28;20026;-81
2023/01/05 10:13:01;;;;;;;34.30;20.13;;;281.70;2278.40;;;;;;4998706;28;20495;-84
2023/01/05 10:13:33;;;;;;;38.25;20.60;;;282.00;2278.40;;;;;;5014238;28;20037;-86
2023/01/05 10:15:59;;;;;;;31.70;19.25;;;282.20;2278.40;;;;;;4998454;28;20029;-82
2023/01/05 10:18:30;;;;;;;35.38;21.15;;;282.30;2278.40;;;;;;4999686;28;20034;-83
2023/01/05 10:21:34;;;;;;;34.70;20.73;;;282.50;2278.40;;;;;;4989852;28;20026;-80
2023/01/05 10:24:18;;;;;;;34.20;19.73;;;307.20;2304.00;;;;;;5007011;28;20396;-82
2023/01/05 10:27:32;;;;;;;34.20;20.45;;;307.40;2304.00;;;;;;4999866;28;20021;-82
2023/01/05 10:30:19;;;;;;;47.47;24.52;;;307.80;2304.00;;;;;;4941589;28;20031;-81
2023/01/05 10:32:44;;;;;;;38.08;22.88;;;308.10;2304.00;;;;;;4957257;28;20059;-81
2023/01/05 10:35:22;;;;;;;;;;;332.80;2329.60;;;;;;4941264;29;20027;-84
2023/01/05 10:37:53;;;;;;;44.10;26.38;;;332.90;2329.60;;;;;;4943250;28;20337;-81
2023/01/05 10:40:56;;;;;;;37.60;23.02;;;332.90;2329.60;;;;;;4946680;29;20536;-90
2023/01/05 10:43:39;;;;;;;42.13;24.15;;;332.90;2329.60;;;;;;4956268;28;20039;-86
2023/01/05 10:46:09;;;;;;;47.65;28.50;;;333.10;2329.60;;;;;;4964926;28;20050;-85
2023/01/05 10:48:35;;;;;;;35.10;22.30;;;333.40;2329.60;;;;;;4958912;28;20031;-82
2023/01/05 10:51:02;;;;;;;34.53;22.60;;;333.40;2329.60;;;;;;4953073;28;20031;-80
2023/01/05 10:53:32;;;;;;;53.67;32.05;;;333.60;2329.60;;;;;;4952252;28;20049;-84
2023/01/05 10:56:17;;;;;;;55.22;38.25;;;333.60;2329.60;;;;;;4971685;28;20179;-79
2023/01/05 10:58:45;;;;;;;45.25;29.90;;;333.50;2329.60;;;;;;4958325;28;20034;-83
2023/01/05 11:01:24;;;;;;;37.50;24.85;;;333.60;2329.60;;;;;;4960341;28;20117;-83
2023/01/05 11:04:15;;;;;;;34.33;21.00;;;358.50;2329.60;;;;;;4973336;28;20027;-83
2023/01/05 11:06:41;;;;;;;38.47;22.95;;;358.60;2329.60;;;;;;4961262;28;20034;-83
2023/01/05 11:09:20;;;;;;;35.38;23.20;;;358.50;2329.60;;;;;;4959160;28;20038;-82
2023/01/05 11:11:56;;;;;;;31.52;20.02;;;358.70;2329.60;;;;;;4975647;28;20141;-82
2023/01/05 11:14:22;;;;;;;28.13;18.45;;;358.90;2329.60;;;;;;4970929;28;20031;-84
2023/01/05 11:16:52;;;;;;;27.15;17.90;;;359.10;2329.60;;;;;;4972888;28;20030;-87
2023/01/05 11:19:25;;;;;;;32.17;19.02;;;359.10;2329.60;;;;;;4967091;28;20051;-85
2023/01/05 11:21:50;;;;;;;31.20;19.83;;;359.00;2329.60;;;;;;4983888;28;20437;-82
2023/01/05 11:24:32;;;;;;;48.78;23.98;;;358.90;2329.60;;;;;;4962467;28;20038;-81
2023/01/05 11:27:01;;;;;;;28.92;18.95;;;358.70;2329.60;;;;;;4975080;28;20027;-82
2023/01/05 11:29:28;;;;;;;33.03;19.95;;;358.90;2329.60;;;;;;4974249;28;20439;-78
2023/01/05 11:32:06;;;;;;;30.05;18.42;;;358.80;2329.60;;;;;;4975918;28;20082;-84
2023/01/05 11:34:41;;;;;;;29.80;17.75;;;358.80;2329.60;;;;;;4963585;28;20048;-78
2023/01/05 11:37:29;;;;;;;28.33;16.30;;;358.80;2329.60;;;;;;4974676;28;20035;-83
2023/01/05 11:39:57;;;;;;;25.92;13.55;;;359.10;2329.60;;;;;;4964789;28;20114;-84
2023/01/05 11:42:23;;;;;;;22.90;13.50;;;359.20;2329.60;;;;;;4980584;28;20026;-79
2023/01/05 11:44:50;;;;;;;29.55;17.70;;;359.30;2329.60;;;;;;5032022;28;20492;-79
2023/01/05 11:47:48;;;;;;;24.65;14.77;;;384.00;2329.60;;;;;;5037525;28;20026;-81
2023/01/05 11:50:23;;;;;;;22.02;14.13;;;359.30;2329.60;;;;;;5029570;28;20049;-82
2023/01/05 11:53:01;;;;;;;22.58;15.52;;;359.30;2329.60;;;;;;5018897;28;20036;-84
2023/01/05 11:55:31;;;;;;;23.45;14.45;;;359.20;2329.60;;;;;;5035441;28;20104;-83
2023/01/05 11:58:31;;;;;;;27.45;15.90;;;359.20;2329.60;;;;;;5035818;28;20112;-82
2023/01/05 12:01:15;;;;;;;26.95;16.83;;;359.10;2329.60;;;;;;5003125;28;20033;-81
2023/01/05 12:03:49;;;;;;;24.25;15.65;;;359.10;2329.60;;;;;;5021575;28;20029;-79
2023/01/05 12:06:52;;;;;;;31.77;19.65;;;359.20;2329.60;;;;;;5015913;28;20026;-80
2023/01/05 12:09:41;;;;;;;30.30;19.70;;;359.00;2329.60;;;;;;5008651;28;20022;-84
2023/01/05 12:12:25;;;;;;;29.70;18.27;;;359.00;2329.60;;;;;;5012392;28;20483;-81
2023/01/05 12:15:06;;;;;;;26.10;16.70;;;358.90;2329.60;;;;;;5031502;28;20124;-83
2023/01/05 12:17:59;;;;;;;27.25;16.45;;;358.90;2329.60;;;;;;5019710;28;20025;-84
2023/01/05 12:20:46;;;;;;;25.08;17.02;;;359.00;2329.60;;;;;;5007132;28;20045;-84
2023/01/05 12:23:41;;;;;;;28.67;17.70;;;358.90;2329.60;;;;;;5024040;28;20029;-79
2023/01/05 12:26:29;;;;;;;31.58;17.27;;;358.90;2329.60;;;;;;5006790;28;20025;-80
2023/01/05 12:29:34;;;;;;;26.63;15.93;;;358.90;2329.60;;;;;;5019859;28;20049;-84
2023/01/05 12:32:12;;;;;;;26.88;16.95;;;358.80;2329.60;;;;;;5005170;28;20037;-81
2023/01/05 12:35:06;;;;;;;32.13;18.00;;;358.80;2329.60;;;;;;5018329;28;20087;-81
2023/01/05 12:37:51;;;;;;;31.38;19.10;;;358.80;2329.60;;;;;;5028448;28;20028;-84
2023/01/05 12:40:51;;;;;;;31.58;19.40;;;358.80;2329.60;;;;;;5042562;28;20529;-83
2023/01/05 12:43:44;;;;;;;27.15;18.33;;;358.80;2329.60;;;;;;4988992;28;20043;-82
2023/01/05 12:46:51;;;;;;;25.88;16.98;;;358.80;2329.60;;;;;;5016875;28;20020;-85
2023/01/05 12:49:22;;;;;;;27.30;18.60;;;358.80;2329.60;;;;;;5038887;28;20037;-82
2023/01/05 12:52:00;;;;;;;27.55;17.17;;;358.80;2329.60;;;;;;5043012;28;20079;-81
2023/01/05 12:54:48;;;;;;;27.77;18.80;;;358.80;2329.60;;;;;;5014625;28;20094;-84
2023/01/05 12:57:33;;;;;;;31.75;20.55;;;358.80;2329.60;;;;;;5017683;28;20056;-82
2023/01/05 13:00:10;;;;;;;41.38;23.35;;;358.80;2329.60;;;;;;5038896;28;20026;-81
2023/01/05 13:02:40;;;;;;;34.90;22.60;;;358.80;2329.60;;;;;;5037227;28;20112;-84
2023/01/05 13:05:06;;;;;;;39.20;24.05;;;358.70;2329.60;;;;;;5019480;28;20036;-80
2023/01/05 13:07:45;;;;;;;39.90;25.13;;;358.70;2329.60;;;;;;5020519;28;20033;-81
2023/01/05 13:10:27;;;;;;;39.30;23.27;;;358.70;2329.60;;;;;;5036755;28;20055;-82
2023/01/05 13:13:00;;;;;;;41.67;24.75;;;358.70;2329.60;;;;;;5018278;28;20095;-79